sensor_id;sensor_type;location;lat;lon;timestamp;P1;durP1;ratioP1;P2;durP2;ratioP2
40058;SDS011;25763;49.972;8.568;2023-05-10T00:01:37;16.73;;;15.82;;
40058;SDS011;25763;49.972;8.568;2023-05-10T00:04:02;17.63;;;16.63;;
40058;SDS011;25763;49.972;8.568;2023-05-10T00:06:29;16.42;;;15.52;;
40058;SDS011;25763;49.972;8.568;2023-05-10T00:08:54;16.73;;;15.82;;
40058;SDS011;25763;49.972;8.568;2023-05-10T00:11:20;17.55;;;16.55;;
40058;SDS011;25763;49.972;8.568;2023-05-10T00:13:45;18.52;;;17.52;;
40058;SDS011;25763;49.972;8.568;2023-05-10T00:16:11;19.65;;;18.58;;
40058;SDS011;25763;49.972;8.568;2023-05-10T00:18:38;17.83;;;16.52;;
40058;SDS011;25763;49.972;8.568;2023-05-10T00:21:04;19.00;;;17.95;;
40058;SDS011;25763;49.972;8.568;2023-05-10T00:23:29;17.55;;;16.55;;
40058;SDS011;25763;49.972;8.568;2023-05-10T00:25:55;16.60;;;15.70;;
40058;SDS011;25763;49.972;8.568;2023-05-10T00:28:20;17.85;;;16.85;;
40058;SDS011;25763;49.972;8.568;2023-05-10T00:30:46;17.38;;;16.40;;
40058;SDS011;25763;49.972;8.568;2023-05-10T00:33:11;18.48;;;17.48;;
40058;SDS011;25763;49.972;8.568;2023-05-10T00:35:37;16.05;;;15.15;;
40058;SDS011;25763;49.972;8.568;2023-05-10T00:38:03;17.08;;;16.17;;
40058;SDS011;25763;49.972;8.568;2023-05-10T00:40:28;17.67;;;16.70;;
40058;SDS011;25763;49.972;8.568;2023-05-10T00:42:55;16.55;;;15.65;;
40058;SDS011;25763;49.972;8.568;2023-05-10T00:45:21;16.65;;;15.75;;
40058;SDS011;25763;49.972;8.568;2023-05-10T00:47:46;16.73;;;15.80;;
40058;SDS011;25763;49.972;8.568;2023-05-10T00:50:12;16.38;;;15.48;;
40058;SDS011;25763;49.972;8.568;2023-05-10T00:52:38;16.80;;;15.90;;
40058;SDS011;25763;49.972;8.568;2023-05-10T00:55:04;16.25;;;15.35;;
40058;SDS011;25763;49.972;8.568;2023-05-10T00:57:30;17.38;;;16.40;;
40058;SDS011;25763;49.972;8.568;2023-05-10T00:59:56;14.18;;;13.38;;
40058;SDS011;25763;49.972;8.568;2023-05-10T01:02:23;14.23;;;13.43;;
40058;SDS011;25763;49.972;8.568;2023-05-10T01:04:49;13.75;;;12.95;;
40058;SDS011;25763;49.972;8.568;2023-05-10T01:07:15;15.20;;;14.05;;
40058;SDS011;25763;49.972;8.568;2023-05-10T01:09:40;14.35;;;13.55;;
40058;SDS011;25763;49.972;8.568;2023-05-10T01:12:06;14.45;;;13.65;;
40058;SDS011;25763;49.972;8.568;2023-05-10T01:14:32;14.80;;;14.00;;
40058;SDS011;25763;49.972;8.568;2023-05-10T01:16:58;14.48;;;13.68;;
40058;SDS011;25763;49.972;8.568;2023-05-10T01:19:26;15.20;;;14.35;;
40058;SDS011;25763;49.972;8.568;2023-05-10T01:30:35;13.98;;;13.18;;
40058;SDS011;25763;49.972;8.568;2023-05-10T01:33:11;13.48;;;12.68;;
40058;SDS011;25763;49.972;8.568;2023-05-10T01:36:03;14.70;;;13.90;;
40058;SDS011;25763;49.972;8.568;2023-05-10T01:38:42;15.52;;;14.65;;
40058;SDS011;25763;49.972;8.568;2023-05-10T01:41:25;16.75;;;15.85;;
40058;SDS011;25763;49.972;8.568;2023-05-10T01:46:35;16.08;;;15.18;;
40058;SDS011;25763;49.972;8.568;2023-05-10T01:49:02;15.85;;;14.95;;
40058;SDS011;25763;49.972;8.568;2023-05-10T01:51:36;16.55;;;15.65;;
40058;SDS011;25763;49.972;8.568;2023-05-10T01:54:06;15.82;;;14.93;;
40058;SDS011;25763;49.972;8.568;2023-05-10T01:56:34;15.85;;;14.95;;
40058;SDS011;25763;49.972;8.568;2023-05-10T01:59:02;16.00;;;15.10;;
40058;SDS011;25763;49.972;8.568;2023-05-10T02:01:33;15.70;;;14.80;;
40058;SDS011;25763;49.972;8.568;2023-05-10T02:04:01;16.52;;;15.63;;
40058;SDS011;25763;49.972;8.568;2023-05-10T02:06:27;15.18;;;14.30;;
40058;SDS011;25763;49.972;8.568;2023-05-10T02:08:53;15.95;;;15.05;;
40058;SDS011;25763;49.972;8.568;2023-05-10T02:11:19;15.35;;;14.45;;
40058;SDS011;25763;49.972;8.568;2023-05-10T02:13:45;16.15;;;15.25;;
40058;SDS011;25763;49.972;8.568;2023-05-10T02:16:13;15.65;;;14.75;;
40058;SDS011;25763;49.972;8.568;2023-05-10T02:18:39;16.15;;;15.25;;
40058;SDS011;25763;49.972;8.568;2023-05-10T02:21:06;14.80;;;14.00;;
40058;SDS011;25763;49.972;8.568;2023-05-10T02:23:33;15.50;;;14.60;;
40058;SDS011;25763;49.972;8.568;2023-05-10T02:26:00;15.48;;;14.57;;
40058;SDS011;25763;49.972;8.568;2023-05-10T02:28:27;16.30;;;15.40;;
40058;SDS011;25763;49.972;8.568;2023-05-10T02:30:54;15.55;;;14.65;;
40058;SDS011;25763;49.972;8.568;2023-05-10T02:33:20;15.68;;;14.77;;
40058;SDS011;25763;49.972;8.568;2023-05-10T02:35:47;14.85;;;14.02;;
40058;SDS011;25763;49.972;8.568;2023-05-10T02:38:15;14.85;;;14.05;;
40058;SDS011;25763;49.972;8.568;2023-05-10T02:40:41;14.52;;;13.73;;
40058;SDS011;25763;49.972;8.568;2023-05-10T02:43:09;15.45;;;14.55;;
40058;SDS011;25763;49.972;8.568;2023-05-10T02:45:38;14.30;;;13.50;;
40058;SDS011;25763;49.972;8.568;2023-05-10T02:48:04;13.95;;;13.15;;
40058;SDS011;25763;49.972;8.568;2023-05-10T02:50:30;15.23;;;14.32;;
40058;SDS011;25763;49.972;8.568;2023-05-10T02:53:01;14.15;;;13.35;;
40058;SDS011;25763;49.972;8.568;2023-05-10T02:55:37;13.43;;;12.63;;
40058;SDS011;25763;49.972;8.568;2023-05-10T03:00:30;11.40;;;10.70;;
40058;SDS011;25763;49.972;8.568;2023-05-10T03:02:56;13.23;;;12.45;;
40058;SDS011;25763;49.972;8.568;2023-05-10T03:05:21;14.10;;;13.30;;
40058;SDS011;25763;49.972;8.568;2023-05-10T03:07:47;14.60;;;13.80;;
40058;SDS011;25763;49.972;8.568;2023-05-10T03:10:13;14.82;;;14.02;;
40058;SDS011;25763;49.972;8.568;2023-05-10T03:12:47;14.80;;;13.93;;
40058;SDS011;25763;49.972;8.568;2023-05-10T03:18:12;15.93;;;15.02;;
40058;SDS011;25763;49.972;8.568;2023-05-10T03:20:56;14.70;;;13.85;;
40058;SDS011;25763;49.972;8.568;2023-05-10T03:23:30;15.63;;;14.73;;
40058;SDS011;25763;49.972;8.568;2023-05-10T03:25:58;15.48;;;14.60;;
40058;SDS011;25763;49.972;8.568;2023-05-10T03:28:24;15.00;;;14.15;;
40058;SDS011;25763;49.972;8.568;2023-05-10T03:30:52;14.57;;;13.77;;
40058;SDS011;25763;49.972;8.568;2023-05-10T03:33:18;14.07;;;13.27;;
40058;SDS011;25763;49.972;8.568;2023-05-10T03:35:43;13.57;;;12.77;;
40058;SDS011;25763;49.972;8.568;2023-05-10T03:38:10;14.98;;;14.15;;
40058;SDS011;25763;49.972;8.568;2023-05-10T03:40:39;14.45;;;13.65;;
40058;SDS011;25763;49.972;8.568;2023-05-10T03:43:04;14.98;;;14.13;;
40058;SDS011;25763;49.972;8.568;2023-05-10T03:45:30;15.73;;;14.82;;
40058;SDS011;25763;49.972;8.568;2023-05-10T03:47:56;15.70;;;14.80;;
40058;SDS011;25763;49.972;8.568;2023-05-10T03:50:22;14.13;;;13.32;;
40058;SDS011;25763;49.972;8.568;2023-05-10T03:52:47;15.00;;;14.18;;
40058;SDS011;25763;49.972;8.568;2023-05-10T03:55:13;15.80;;;14.90;;
40058;SDS011;25763;49.972;8.568;2023-05-10T03:57:38;16.27;;;15.38;;
40058;SDS011;25763;49.972;8.568;2023-05-10T04:00:04;16.77;;;15.77;;
40058;SDS011;25763;49.972;8.568;2023-05-10T04:02:29;14.48;;;13.68;;
40058;SDS011;25763;49.972;8.568;2023-05-10T04:04:55;14.90;;;14.07;;
40058;SDS011;25763;49.972;8.568;2023-05-10T04:07:21;15.10;;;14.25;;
40058;SDS011;25763;49.972;8.568;2023-05-10T04:09:46;15.50;;;14.60;;
40058;SDS011;25763;49.972;8.568;2023-05-10T04:12:12;14.40;;;13.60;;
40058;SDS011;25763;49.972;8.568;2023-05-10T04:14:37;16.73;;;15.73;;
40058;SDS011;25763;49.972;8.568;2023-05-10T04:17:02;15.35;;;14.48;;
40058;SDS011;25763;49.972;8.568;2023-05-10T04:19:31;15.05;;;14.15;;
40058;SDS011;25763;49.972;8.568;2023-05-10T04:21:57;15.82;;;14.93;;
40058;SDS011;25763;49.972;8.568;2023-05-10T04:24:23;15.23;;;14.35;;
40058;SDS011;25763;49.972;8.568;2023-05-10T04:26:48;15.23;;;14.32;;
40058;SDS011;25763;49.972;8.568;2023-05-10T04:29:13;14.55;;;13.75;;
40058;SDS011;25763;49.972;8.568;2023-05-10T04:31:39;15.52;;;14.63;;
40058;SDS011;25763;49.972;8.568;2023-05-10T04:34:04;15.60;;;14.70;;
40058;SDS011;25763;49.972;8.568;2023-05-10T04:36:30;17.15;;;15.80;;
40058;SDS011;25763;49.972;8.568;2023-05-10T04:38:57;14.35;;;13.55;;
40058;SDS011;25763;49.972;8.568;2023-05-10T04:41:22;14.05;;;13.25;;
40058;SDS011;25763;49.972;8.568;2023-05-10T04:43:48;13.88;;;13.07;;
40058;SDS011;25763;49.972;8.568;2023-05-10T04:46:14;15.07;;;14.25;;
40058;SDS011;25763;49.972;8.568;2023-05-10T04:48:39;15.02;;;14.18;;
40058;SDS011;25763;49.972;8.568;2023-05-10T04:51:05;15.73;;;14.82;;
40058;SDS011;25763;49.972;8.568;2023-05-10T04:53:31;15.32;;;14.45;;
40058;SDS011;25763;49.972;8.568;2023-05-10T04:55:57;14.90;;;14.10;;
40058;SDS011;25763;49.972;8.568;2023-05-10T04:58:22;14.15;;;13.35;;
40058;SDS011;25763;49.972;8.568;2023-05-10T05:00:47;14.13;;;13.32;;
40058;SDS011;25763;49.972;8.568;2023-05-10T05:03:13;13.88;;;13.07;;
40058;SDS011;25763;49.972;8.568;2023-05-10T05:05:38;13.85;;;13.05;;
40058;SDS011;25763;49.972;8.568;2023-05-10T05:08:04;13.85;;;12.95;;
40058;SDS011;25763;49.972;8.568;2023-05-10T05:10:29;13.55;;;12.75;;
40058;SDS011;25763;49.972;8.568;2023-05-10T05:12:55;13.32;;;12.52;;
40058;SDS011;25763;49.972;8.568;2023-05-10T05:15:20;14.15;;;13.35;;
40058;SDS011;25763;49.972;8.568;2023-05-10T05:17:46;15.25;;;14.35;;
40058;SDS011;25763;49.972;8.568;2023-05-10T05:20:11;14.13;;;13.32;;
40058;SDS011;25763;49.972;8.568;2023-05-10T05:22:38;13.60;;;12.80;;
40058;SDS011;25763;49.972;8.568;2023-05-10T05:25:04;13.90;;;13.10;;
40058;SDS011;25763;49.972;8.568;2023-05-10T05:27:30;13.98;;;13.18;;
40058;SDS011;25763;49.972;8.568;2023-05-10T05:29:56;14.30;;;13.50;;
40058;SDS011;25763;49.972;8.568;2023-05-10T05:32:22;13.90;;;13.10;;
40058;SDS011;25763;49.972;8.568;2023-05-10T05:34:48;14.07;;;13.27;;
40058;SDS011;25763;49.972;8.568;2023-05-10T05:37:20;15.57;;;14.68;;
40058;SDS011;25763;49.972;8.568;2023-05-10T05:39:46;15.68;;;14.77;;
40058;SDS011;25763;49.972;8.568;2023-05-10T05:42:12;13.88;;;13.07;;
40058;SDS011;25763;49.972;8.568;2023-05-10T05:44:38;14.20;;;13.40;;
40058;SDS011;25763;49.972;8.568;2023-05-10T05:47:03;16.02;;;15.13;;
40058;SDS011;25763;49.972;8.568;2023-05-10T05:49:29;15.75;;;14.85;;
40058;SDS011;25763;49.972;8.568;2023-05-10T05:51:58;14.27;;;13.48;;
40058;SDS011;25763;49.972;8.568;2023-05-10T05:54:24;14.35;;;13.55;;
40058;SDS011;25763;49.972;8.568;2023-05-10T05:56:49;14.60;;;13.80;;
40058;SDS011;25763;49.972;8.568;2023-05-10T05:59:14;15.40;;;14.50;;
40058;SDS011;25763;49.972;8.568;2023-05-10T06:01:40;15.23;;;14.32;;
40058;SDS011;25763;49.972;8.568;2023-05-10T06:04:05;15.70;;;14.80;;
40058;SDS011;25763;49.972;8.568;2023-05-10T06:06:31;15.77;;;14.88;;
40058;SDS011;25763;49.972;8.568;2023-05-10T06:08:57;19.27;;;17.42;;
40058;SDS011;25763;49.972;8.568;2023-05-10T06:11:22;18.95;;;17.95;;
40058;SDS011;25763;49.972;8.568;2023-05-10T06:13:48;19.73;;;18.63;;
40058;SDS011;25763;49.972;8.568;2023-05-10T06:16:13;21.30;;;20.10;;
40058;SDS011;25763;49.972;8.568;2023-05-10T06:18:39;20.95;;;19.85;;
40058;SDS011;25763;49.972;8.568;2023-05-10T06:21:04;21.88;;;20.67;;
40058;SDS011;25763;49.972;8.568;2023-05-10T06:23:29;21.45;;;20.27;;
40058;SDS011;25763;49.972;8.568;2023-05-10T06:25:55;22.20;;;21.00;;
40058;SDS011;25763;49.972;8.568;2023-05-10T06:28:20;22.88;;;21.67;;
40058;SDS011;25763;49.972;8.568;2023-05-10T06:30:46;22.10;;;20.90;;
40058;SDS011;25763;49.972;8.568;2023-05-10T06:33:11;22.33;;;21.13;;
40058;SDS011;25763;49.972;8.568;2023-05-10T06:35:36;23.23;;;21.92;;
40058;SDS011;25763;49.972;8.568;2023-05-10T06:38:02;21.58;;;20.42;;
40058;SDS011;25763;49.972;8.568;2023-05-10T06:40:27;19.65;;;18.55;;
40058;SDS011;25763;49.972;8.568;2023-05-10T06:42:53;20.02;;;18.92;;
40058;SDS011;25763;49.972;8.568;2023-05-10T06:45:18;21.02;;;19.92;;
40058;SDS011;25763;49.972;8.568;2023-05-10T06:47:43;21.20;;;20.05;;
40058;SDS011;25763;49.972;8.568;2023-05-10T06:50:09;20.70;;;19.60;;
40058;SDS011;25763;49.972;8.568;2023-05-10T06:52:36;22.70;;;21.48;;
40058;SDS011;25763;49.972;8.568;2023-05-10T06:55:02;22.10;;;20.90;;
40058;SDS011;25763;49.972;8.568;2023-05-10T06:57:28;25.38;;;23.98;;
40058;SDS011;25763;49.972;8.568;2023-05-10T06:59:54;24.42;;;23.13;;
40058;SDS011;25763;49.972;8.568;2023-05-10T07:02:21;22.25;;;21.05;;
40058;SDS011;25763;49.972;8.568;2023-05-10T07:04:47;24.48;;;23.17;;
40058;SDS011;25763;49.972;8.568;2023-05-10T07:07:13;27.48;;;26.02;;
40058;SDS011;25763;49.972;8.568;2023-05-10T07:09:39;27.00;;;25.55;;
40058;SDS011;25763;49.972;8.568;2023-05-10T07:12:04;27.95;;;26.50;;
40058;SDS011;25763;49.972;8.568;2023-05-10T07:14:29;28.13;;;26.65;;
40058;SDS011;25763;49.972;8.568;2023-05-10T07:16:55;31.58;;;29.45;;
40058;SDS011;25763;49.972;8.568;2023-05-10T07:19:20;29.15;;;27.65;;
40058;SDS011;25763;49.972;8.568;2023-05-10T07:21:46;26.90;;;25.50;;
40058;SDS011;25763;49.972;8.568;2023-05-10T07:24:11;29.40;;;27.90;;
40058;SDS011;25763;49.972;8.568;2023-05-10T07:26:36;29.40;;;27.80;;
40058;SDS011;25763;49.972;8.568;2023-05-10T07:29:02;33.40;;;31.70;;
40058;SDS011;25763;49.972;8.568;2023-05-10T07:31:27;35.33;;;33.47;;
40058;SDS011;25763;49.972;8.568;2023-05-10T07:33:53;37.10;;;33.50;;
40058;SDS011;25763;49.972;8.568;2023-05-10T07:36:18;31.60;;;29.98;;
40058;SDS011;25763;49.972;8.568;2023-05-10T07:38:43;29.90;;;28.33;;
40058;SDS011;25763;49.972;8.568;2023-05-10T07:41:09;28.13;;;26.63;;
40058;SDS011;25763;49.972;8.568;2023-05-10T07:43:34;21.80;;;20.60;;
40058;SDS011;25763;49.972;8.568;2023-05-10T07:45:59;18.33;;;17.33;;
40058;SDS011;25763;49.972;8.568;2023-05-10T07:48:25;17.42;;;16.33;;
40058;SDS011;25763;49.972;8.568;2023-05-10T07:50:51;14.45;;;13.65;;
40058;SDS011;25763;49.972;8.568;2023-05-10T07:53:16;14.13;;;13.32;;
40058;SDS011;25763;49.972;8.568;2023-05-10T07:55:43;18.85;;;17.83;;
40058;SDS011;25763;49.972;8.568;2023-05-10T07:58:09;13.40;;;12.60;;
40058;SDS011;25763;49.972;8.568;2023-05-10T08:00:34;12.63;;;11.80;;
40058;SDS011;25763;49.972;8.568;2023-05-10T08:02:59;13.30;;;12.40;;
40058;SDS011;25763;49.972;8.568;2023-05-10T08:05:25;12.98;;;11.98;;
40058;SDS011;25763;49.972;8.568;2023-05-10T08:07:50;14.18;;;13.27;;
40058;SDS011;25763;49.972;8.568;2023-05-10T08:10:16;13.23;;;12.45;;
40058;SDS011;25763;49.972;8.568;2023-05-10T08:12:41;13.77;;;12.98;;
40058;SDS011;25763;49.972;8.568;2023-05-10T08:15:07;14.00;;;13.20;;
40058;SDS011;25763;49.972;8.568;2023-05-10T08:17:33;15.18;;;14.27;;
40058;SDS011;25763;49.972;8.568;2023-05-10T08:19:58;13.35;;;12.55;;
40058;SDS011;25763;49.972;8.568;2023-05-10T08:22:24;15.30;;;14.40;;
40058;SDS011;25763;49.972;8.568;2023-05-10T08:24:49;14.18;;;13.38;;
40058;SDS011;25763;49.972;8.568;2023-05-10T08:27:15;15.63;;;14.73;;
40058;SDS011;25763;49.972;8.568;2023-05-10T08:29:40;16.00;;;14.88;;
40058;SDS011;25763;49.972;8.568;2023-05-10T08:32:05;14.88;;;13.98;;
40058;SDS011;25763;49.972;8.568;2023-05-10T08:34:31;14.77;;;13.98;;
40058;SDS011;25763;49.972;8.568;2023-05-10T08:36:56;14.63;;;13.80;;
40058;SDS011;25763;49.972;8.568;2023-05-10T08:39:22;14.85;;;13.98;;
40058;SDS011;25763;49.972;8.568;2023-05-10T08:41:48;14.23;;;13.43;;
40058;SDS011;25763;49.972;8.568;2023-05-10T08:44:16;13.13;;;12.38;;
40058;SDS011;25763;49.972;8.568;2023-05-10T08:46:43;13.70;;;12.90;;
40058;SDS011;25763;49.972;8.568;2023-05-10T08:49:16;13.93;;;13.13;;
40058;SDS011;25763;49.972;8.568;2023-05-10T08:51:47;12.38;;;11.68;;
40058;SDS011;25763;49.972;8.568;2023-05-10T08:54:16;13.32;;;12.52;;
40058;SDS011;25763;49.972;8.568;2023-05-10T08:56:42;15.50;;;14.40;;
40058;SDS011;25763;49.972;8.568;2023-05-10T08:59:07;17.52;;;16.52;;
40058;SDS011;25763;49.972;8.568;2023-05-10T09:01:33;14.88;;;14.07;;
40058;SDS011;25763;49.972;8.568;2023-05-10T09:04:01;12.85;;;12.05;;
40058;SDS011;25763;49.972;8.568;2023-05-10T09:06:27;14.80;;;13.73;;
40058;SDS011;25763;49.972;8.568;2023-05-10T09:08:53;13.00;;;12.20;;
40058;SDS011;25763;49.972;8.568;2023-05-10T09:11:19;14.75;;;13.90;;
40058;SDS011;25763;49.972;8.568;2023-05-10T09:13:45;13.65;;;12.85;;
40058;SDS011;25763;49.972;8.568;2023-05-10T09:16:13;14.80;;;13.90;;
40058;SDS011;25763;49.972;8.568;2023-05-10T09:18:38;15.07;;;13.93;;
40058;SDS011;25763;49.972;8.568;2023-05-10T09:21:03;20.75;;;19.58;;
40058;SDS011;25763;49.972;8.568;2023-05-10T09:23:28;18.48;;;17.38;;
40058;SDS011;25763;49.972;8.568;2023-05-10T09:26:06;22.05;;;20.85;;
40058;SDS011;25763;49.972;8.568;2023-05-10T09:28:50;22.05;;;20.85;;
40058;SDS011;25763;49.972;8.568;2023-05-10T09:31:16;26.50;;;25.10;;
40058;SDS011;25763;49.972;8.568;2023-05-10T09:33:45;27.00;;;25.60;;
40058;SDS011;25763;49.972;8.568;2023-05-10T09:36:13;24.48;;;23.17;;
40058;SDS011;25763;49.972;8.568;2023-05-10T09:38:46;20.80;;;19.70;;
40058;SDS011;25763;49.972;8.568;2023-05-10T09:41:22;16.88;;;15.98;;
40058;SDS011;25763;49.972;8.568;2023-05-10T09:43:48;12.32;;;11.63;;
40058;SDS011;25763;49.972;8.568;2023-05-10T09:46:15;12.82;;;12.13;;
40058;SDS011;25763;49.972;8.568;2023-05-10T09:48:42;13.55;;;12.75;;
40058;SDS011;25763;49.972;8.568;2023-05-10T09:51:09;15.88;;;14.98;;
40058;SDS011;25763;49.972;8.568;2023-05-10T09:53:35;23.45;;;22.20;;
40058;SDS011;25763;49.972;8.568;2023-05-10T09:56:01;24.67;;;23.38;;
40058;SDS011;25763;49.972;8.568;2023-05-10T09:58:27;29.00;;;27.40;;
40058;SDS011;25763;49.972;8.568;2023-05-10T10:00:52;32.30;;;30.63;;
40058;SDS011;25763;49.972;8.568;2023-05-10T10:03:21;33.20;;;31.48;;
40058;SDS011;25763;49.972;8.568;2023-05-10T10:05:48;32.00;;;30.33;;
40058;SDS011;25763;49.972;8.568;2023-05-10T10:08:14;33.08;;;31.38;;
40058;SDS011;25763;49.972;8.568;2023-05-10T10:10:40;30.45;;;28.85;;
40058;SDS011;25763;49.972;8.568;2023-05-10T10:13:06;33.22;;;31.52;;
40058;SDS011;25763;49.972;8.568;2023-05-10T10:15:32;30.13;;;28.55;;
40058;SDS011;25763;49.972;8.568;2023-05-10T10:17:58;29.48;;;27.95;;
40058;SDS011;25763;49.972;8.568;2023-05-10T10:20:25;25.63;;;24.27;;
40058;SDS011;25763;49.972;8.568;2023-05-10T10:22:51;26.10;;;24.70;;
40058;SDS011;25763;49.972;8.568;2023-05-10T10:25:17;26.05;;;24.45;;
40058;SDS011;25763;49.972;8.568;2023-05-10T10:36:03;24.73;;;23.42;;
40058;SDS011;25763;49.972;8.568;2023-05-10T10:38:35;14.43;;;13.63;;
40058;SDS011;25763;49.972;8.568;2023-05-10T10:41:06;13.85;;;12.85;;
40058;SDS011;25763;49.972;8.568;2023-05-10T10:43:34;13.68;;;12.88;;
40058;SDS011;25763;49.972;8.568;2023-05-10T10:46:13;14.32;;;13.52;;
40058;SDS011;25763;49.972;8.568;2023-05-10T10:48:49;13.32;;;12.52;;
40058;SDS011;25763;49.972;8.568;2023-05-10T10:51:34;12.50;;;11.80;;
40058;SDS011;25763;49.972;8.568;2023-05-10T10:54:09;14.15;;;13.35;;
40058;SDS011;25763;49.972;8.568;2023-05-10T10:56:35;14.13;;;13.32;;
40058;SDS011;25763;49.972;8.568;2023-05-10T10:59:00;13.40;;;12.60;;
40058;SDS011;25763;49.972;8.568;2023-05-10T11:01:26;16.88;;;15.88;;
40058;SDS011;25763;49.972;8.568;2023-05-10T11:06:29;29.75;;;28.20;;
40058;SDS011;25763;49.972;8.568;2023-05-10T11:08:59;38.50;;;36.45;;
40058;SDS011;25763;49.972;8.568;2023-05-10T11:11:30;27.40;;;25.98;;
40058;SDS011;25763;49.972;8.568;2023-05-10T11:13:56;18.23;;;17.23;;
40058;SDS011;25763;49.972;8.568;2023-05-10T11:16:28;14.27;;;13.48;;
40058;SDS011;25763;49.972;8.568;2023-05-10T11:19:13;21.15;;;20.00;;
40058;SDS011;25763;49.972;8.568;2023-05-10T11:21:49;18.08;;;17.08;;
40058;SDS011;25763;49.972;8.568;2023-05-10T11:24:18;19.88;;;18.77;;
40058;SDS011;25763;49.972;8.568;2023-05-10T11:26:45;22.42;;;21.23;;
40058;SDS011;25763;49.972;8.568;2023-05-10T11:29:12;26.02;;;24.63;;
40058;SDS011;25763;49.972;8.568;2023-05-10T11:31:41;33.20;;;31.48;;
40058;SDS011;25763;49.972;8.568;2023-05-10T11:34:11;25.85;;;24.45;;
40058;SDS011;25763;49.972;8.568;2023-05-10T11:36:50;30.63;;;29.05;;
40058;SDS011;25763;49.972;8.568;2023-05-10T11:39:18;22.30;;;21.05;;
40058;SDS011;25763;49.972;8.568;2023-05-10T11:41:46;22.75;;;21.55;;
40058;SDS011;25763;49.972;8.568;2023-05-10T11:44:13;12.35;;;11.65;;
40058;SDS011;25763;49.972;8.568;2023-05-10T11:46:39;12.13;;;11.43;;
40058;SDS011;25763;49.972;8.568;2023-05-10T11:49:07;12.48;;;11.77;;
40058;SDS011;25763;49.972;8.568;2023-05-10T11:51:33;14.68;;;13.88;;
40058;SDS011;25763;49.972;8.568;2023-05-10T11:54:00;15.13;;;14.23;;
40058;SDS011;25763;49.972;8.568;2023-05-10T11:56:27;16.65;;;15.75;;
40058;SDS011;25763;49.972;8.568;2023-05-10T11:58:53;16.02;;;15.13;;
40058;SDS011;25763;49.972;8.568;2023-05-10T12:01:23;18.13;;;17.13;;
40058;SDS011;25763;49.972;8.568;2023-05-10T12:03:52;18.98;;;17.98;;
40058;SDS011;25763;49.972;8.568;2023-05-10T12:06:19;20.83;;;19.73;;
40058;SDS011;25763;49.972;8.568;2023-05-10T12:08:46;22.38;;;21.17;;
40058;SDS011;25763;49.972;8.568;2023-05-10T12:11:12;18.90;;;17.90;;
40058;SDS011;25763;49.972;8.568;2023-05-10T12:13:40;19.60;;;18.50;;
40058;SDS011;25763;49.972;8.568;2023-05-10T12:19:02;19.42;;;18.35;;
40058;SDS011;25763;49.972;8.568;2023-05-10T12:21:28;16.10;;;15.20;;
40058;SDS011;25763;49.972;8.568;2023-05-10T12:23:59;13.40;;;12.60;;
40058;SDS011;25763;49.972;8.568;2023-05-10T12:28:55;14.13;;;13.32;;
40058;SDS011;25763;49.972;8.568;2023-05-10T12:31:53;14.50;;;13.70;;
40058;SDS011;25763;49.972;8.568;2023-05-10T12:36:51;14.40;;;13.60;;
40058;SDS011;25763;49.972;8.568;2023-05-10T12:39:18;12.05;;;11.35;;
40058;SDS011;25763;49.972;8.568;2023-05-10T12:41:43;11.50;;;10.80;;
40058;SDS011;25763;49.972;8.568;2023-05-10T12:44:08;12.30;;;11.60;;
40058;SDS011;25763;49.972;8.568;2023-05-10T12:46:34;13.60;;;12.80;;
40058;SDS011;25763;49.972;8.568;2023-05-10T12:48:59;11.32;;;10.63;;
40058;SDS011;25763;49.972;8.568;2023-05-10T12:51:24;13.10;;;12.30;;
40058;SDS011;25763;49.972;8.568;2023-05-10T12:53:50;11.30;;;10.60;;
40058;SDS011;25763;49.972;8.568;2023-05-10T12:56:15;13.05;;;12.25;;
40058;SDS011;25763;49.972;8.568;2023-05-10T12:58:40;13.25;;;12.45;;
40058;SDS011;25763;49.972;8.568;2023-05-10T13:01:06;13.95;;;13.15;;
40058;SDS011;25763;49.972;8.568;2023-05-10T13:03:31;13.02;;;12.25;;
40058;SDS011;25763;49.972;8.568;2023-05-10T13:05:57;11.93;;;11.23;;
40058;SDS011;25763;49.972;8.568;2023-05-10T13:08:22;13.73;;;12.93;;
40058;SDS011;25763;49.972;8.568;2023-05-10T13:10:48;14.70;;;13.90;;
40058;SDS011;25763;49.972;8.568;2023-05-10T13:13:13;15.57;;;14.68;;
40058;SDS011;25763;49.972;8.568;2023-05-10T13:15:39;12.45;;;11.68;;
40058;SDS011;25763;49.972;8.568;2023-05-10T13:18:04;16.85;;;15.95;;
40058;SDS011;25763;49.972;8.568;2023-05-10T13:20:30;19.42;;;18.33;;
40058;SDS011;25763;49.972;8.568;2023-05-10T13:22:55;14.48;;;13.57;;
40058;SDS011;25763;49.972;8.568;2023-05-10T13:25:20;15.88;;;14.98;;
40058;SDS011;25763;49.972;8.568;2023-05-10T13:27:46;20.58;;;19.48;;
40058;SDS011;25763;49.972;8.568;2023-05-10T13:30:11;30.20;;;28.63;;
40058;SDS011;25763;49.972;8.568;2023-05-10T13:32:37;26.35;;;24.92;;
40058;SDS011;25763;49.972;8.568;2023-05-10T13:35:03;31.45;;;29.80;;
40058;SDS011;25763;49.972;8.568;2023-05-10T13:37:29;17.52;;;16.52;;
40058;SDS011;25763;49.972;8.568;2023-05-10T13:39:56;18.42;;;17.42;;
40058;SDS011;25763;49.972;8.568;2023-05-10T13:42:22;14.45;;;13.65;;
40058;SDS011;25763;49.972;8.568;2023-05-10T13:44:48;13.82;;;13.02;;
40058;SDS011;25763;49.972;8.568;2023-05-10T13:47:14;12.75;;;12.02;;
40058;SDS011;25763;49.972;8.568;2023-05-10T13:49:39;13.18;;;12.38;;
40058;SDS011;25763;49.972;8.568;2023-05-10T13:52:05;11.55;;;10.85;;
40058;SDS011;25763;49.972;8.568;2023-05-10T13:54:35;12.00;;;11.30;;
40058;SDS011;25763;49.972;8.568;2023-05-10T13:57:03;12.10;;;11.40;;
40058;SDS011;25763;49.972;8.568;2023-05-10T13:59:29;11.55;;;10.75;;
40058;SDS011;25763;49.972;8.568;2023-05-10T14:01:56;11.52;;;10.82;;
40058;SDS011;25763;49.972;8.568;2023-05-10T14:04:22;11.00;;;10.35;;
40058;SDS011;25763;49.972;8.568;2023-05-10T14:06:47;10.63;;;9.93;;
40058;SDS011;25763;49.972;8.568;2023-05-10T14:09:13;12.15;;;11.45;;
40058;SDS011;25763;49.972;8.568;2023-05-10T14:11:39;11.35;;;10.65;;
40058;SDS011;25763;49.972;8.568;2023-05-10T14:14:08;11.30;;;10.60;;
40058;SDS011;25763;49.972;8.568;2023-05-10T14:16:34;11.80;;;11.10;;
40058;SDS011;25763;49.972;8.568;2023-05-10T14:18:59;14.70;;;13.90;;
40058;SDS011;25763;49.972;8.568;2023-05-10T14:21:24;16.23;;;15.32;;
40058;SDS011;25763;49.972;8.568;2023-05-10T14:23:50;16.52;;;15.63;;
40058;SDS011;25763;49.972;8.568;2023-05-10T14:26:15;16.45;;;15.55;;
40058;SDS011;25763;49.972;8.568;2023-05-10T14:28:41;26.23;;;24.83;;
40058;SDS011;25763;49.972;8.568;2023-05-10T14:31:06;36.08;;;34.10;;
40058;SDS011;25763;49.972;8.568;2023-05-10T14:33:31;14.95;;;14.13;;
40058;SDS011;25763;49.972;8.568;2023-05-10T14:35:57;21.27;;;20.13;;
40058;SDS011;25763;49.972;8.568;2023-05-10T14:38:22;16.27;;;15.38;;
40058;SDS011;25763;49.972;8.568;2023-05-10T14:40:48;13.52;;;12.73;;
40058;SDS011;25763;49.972;8.568;2023-05-10T14:43:14;12.70;;;11.98;;
40058;SDS011;25763;49.972;8.568;2023-05-10T14:45:39;13.13;;;12.35;;
40058;SDS011;25763;49.972;8.568;2023-05-10T14:48:05;12.45;;;11.75;;
40058;SDS011;25763;49.972;8.568;2023-05-10T14:50:31;13.70;;;12.90;;
40058;SDS011;25763;49.972;8.568;2023-05-10T14:52:56;12.35;;;11.65;;
40058;SDS011;25763;49.972;8.568;2023-05-10T14:55:22;12.00;;;11.30;;